Terminal Aerodrome Forecast
Issued by NWS La Crosse, WI

Home | Current Version | Previous Version | Text Only | Print | Product List | Glossary On
Versions: 1 2 3 4 5 6 7 8 9 10 11 12 13 14 15 16 17 18 19 20 21 22 23 24
000
FTUS43 KARX 240525
TAFRST
TAF
KRST 240525Z 2406/2506 17008KT P6SM SCT250
     FM241300 16013KT P6SM SCT250
     FM241500 17018G28KT P6SM BKN250
     FM250100 17013KT P6SM BKN120=

USA.gov is the U.S. government's official web portal to all federal, state and local government web resources and services.